Flight Track Log - Related Links

Times and Time Zones

All times are in EDT time to prevent confusion due to time zone crossing. See the ASA6 flight status page for this flight to view local times or setup timezone preferences in your user account.


Time Position Orientation Groundspeed Altitude Reporting Facility
EDT Latitude Longitude Course Direction KTS MPH feet Rate Location/Type
Sat 03:54:12 PM 33.9286 -118.4594 217° Southwest 191 220 1,900  Level Los Angeles Center
Sat 03:55:14 PM 33.8733 -118.5103 217° Southwest 244 281 4,200 2,323 Climbing Los Angeles Center
Sat 03:56:16 PM 33.8039 -118.5133 182° South 274 315 6,700 2,585 Climbing Los Angeles Center
Sat 03:57:17 PM 33.7275 -118.5186 183° South 279 321 9,500 2,341 Climbing Los Angeles Center
Sat 03:58:19 PM 33.6694 -118.4336 129° Southeast 302 348 11,500 1,935 Climbing Los Angeles Center
Sat 03:59:21 PM 33.6439 -118.3292 106° East 330 380 13,500 1,500 Climbing Los Angeles Center
Sat 04:00:23 PM 33.6444 -118.2119 90° East 360 414 14,600 1,415 Climbing Los Angeles Center
Sat 04:01:24 PM 33.6436 -118.0833 90° East 384 442 16,400 1,707 Climbing Los Angeles Center
Sat 04:02:26 PM 33.6272 -117.9469 98° East 413 475 18,100 1,839 Climbing Los Angeles Center
Sat 04:03:28 PM 33.6097 -117.7814 97° East 416 479 20,200 1,756 Climbing Los Angeles Center
Sat 04:04:29 PM 33.5936 -117.6372 98° East 430 495 21,700 1,805 Climbing Los Angeles Center
Sat 04:05:31 PM 33.5783 -117.4897 97° East 442 509 23,900 1,790 Climbing Los Angeles Center
Sat 04:06:33 PM 33.5619 -117.3456 98° East 440 506 25,400 1,463 Climbing Los Angeles Center
Sat 04:07:34 PM 33.5442 -117.1947 98° East 451 519 26,900 1,220 Climbing Los Angeles Center
Sat 04:08:36 PM 33.5275 -117.0419 97° East 457 526 27,900 1,161 Climbing Los Angeles Center
Sat 04:09:38 PM 33.5111 -116.8833 97° East 474 545 29,300 1,463 Climbing Los Angeles Center
Sat 04:10:39 PM 33.4903 -116.6939 97° East 475 547 30,900 1,220 Climbing Los Angeles Center
Sat 04:11:41 PM 33.4719 -116.5358 98° East 477 549 31,800 774 Climbing Los Angeles Center
Sat 04:12:43 PM 33.4522 -116.3733 98° East 486 559 32,500 878 Climbing Los Angeles Center
Sat 04:13:44 PM 33.4311 -116.2058 99° East 501 577 33,600 1,122 Climbing Los Angeles Center
Sat 04:14:46 PM 33.4114 -116.0422 98° East 497 572 34,800 677 Climbing Los Angeles Center
Sat 04:15:48 PM 33.3906 -115.8761 98° East 500 575 35,000 98 Climbing Los Angeles Center
Sat 04:16:49 PM 33.3683 -115.7083 99° East 507 583 35,000  Level Los Angeles Center
Sat 04:17:51 PM 33.3475 -115.5397 98° East 510 587 35,000  Level Los Angeles Center
Sat 04:18:52 PM 33.3269 -115.3714 98° East 511 588 35,000  Level Los Angeles Center
Sat 04:19:54 PM 33.3003 -115.1675 99° East 515 593 35,000  Level Los Angeles Center
Sat 04:20:56 PM 33.2786 -114.9972 99° East 516 594 35,000  Level Los Angeles Center
Sat 04:21:57 PM 33.2556 -114.8267 99° East 518 596 35,000  Level Los Angeles Center
Sat 04:22:59 PM 33.2333 -114.6556 99° East 520 598 35,000  Level Los Angeles Center
Sat 04:24:00 PM 33.2106 -114.4839 99° East 522 601 35,000  Level Los Angeles Center
Sat 04:25:02 PM 33.1878 -114.3128 99° East 523 602 35,000  Level Los Angeles Center
Sat 04:26:04 PM 33.1636 -114.1400 99° East 525 604 35,000  Level Los Angeles Center
Sat 04:27:05 PM 33.1411 -113.9681 99° East 526 605 35,000 98 Level Los Angeles Center
Sat 04:28:07 PM 33.1094 -113.7628 100° East 522 601 35,200 488 Climbing Los Angeles Center
Sat 04:29:08 PM 33.0872 -113.5869 99° East 533 613 36,000 732 Climbing Los Angeles Center
Sat 04:30:10 PM 33.0622 -113.4136 100° East 530 610 36,700 484 Climbing Los Angeles Center
Sat 04:31:12 PM 33.0361 -113.2361 100° East 533 613 37,000 133 Climbing Los Angeles Center
Sat 04:32:25 PM 33.0056 -113.0244 100° East 533 613 37,000  Level Albuquerque Center
Sat 04:33:27 PM 32.9800 -112.8500 100° East 533 613 37,000  Level Albuquerque Center
Sat 04:34:29 PM 32.9539 -112.6753 100° East 532 612 37,000  Level Albuquerque Center
Sat 04:35:30 PM 32.9261 -112.5022 101° East 530 610 37,000  Level Albuquerque Center
Sat 04:36:32 PM 32.8992 -112.3278 100° East 533 613 37,000  Level Albuquerque Center
Sat 04:37:33 PM 32.8714 -112.1394 100° East 535 616 37,000  Level Albuquerque Center
Sat 04:38:35 PM 32.8447 -111.9667 100° East 533 613 37,000  Level Albuquerque Center
Sat 04:39:37 PM 32.8169 -111.7917 101° East 540 621 37,000  Level Albuquerque Center
Sat 04:40:38 PM 32.7900 -111.6172 100° East 540 621 37,000  Level Albuquerque Center
Sat 04:41:40 PM 32.7625 -111.4450 101° East 536 617 37,000  Level Albuquerque Center
Sat 04:42:41 PM 32.7278 -111.2389 101° East 535 616 37,000  Level Albuquerque Center
Sat 04:43:43 PM 32.6997 -111.0667 101° East 534 615 37,000  Level Albuquerque Center
Sat 04:44:44 PM 32.6717 -110.8936 101° East 537 618 37,000  Level Albuquerque Center
Sat 04:45:46 PM 32.6419 -110.7214 102° East 535 616 37,000  Level Albuquerque Center
Sat 04:46:48 PM 32.6142 -110.5475 101° East 537 618 37,000  Level Albuquerque Center
Sat 04:47:49 PM 32.5847 -110.3747 101° East 538 619 37,000  Level Albuquerque Center
Sat 04:48:51 PM 32.5533 -110.1886 101° East 541 623 37,000  Level Albuquerque Center
Sat 04:49:52 PM 32.5217 -110.0144 102° East 543 625 37,000  Level Albuquerque Center
Sat 04:50:54 PM 32.4922 -109.8411 101° East 541 623 37,000  Level Albuquerque Center
Sat 04:51:56 PM 32.4547 -109.6314 102° East 544 626 37,000  Level Albuquerque Center
Sat 04:52:57 PM 32.4217 -109.4575 103° East 546 628 37,000  Level Albuquerque Center
Sat 04:53:59 PM 32.3931 -109.2867 101° East 539 620 37,000  Level Albuquerque Center
Sat 04:55:00 PM 32.3611 -109.1133 102° East 541 623 37,000  Level Albuquerque Center
Sat 04:56:02 PM 32.3308 -108.9400 102° East 543 625 37,000  Level Albuquerque Center
Sat 04:57:04 PM 32.2975 -108.7672 103° East 544 626 37,000  Level Albuquerque Center
Sat 04:58:05 PM 32.2600 -108.5581 102° East 546 628 37,000  Level Albuquerque Center
Sat 04:59:07 PM 32.2317 -108.4083 103° East 544 626 37,000  Level Albuquerque Center
Sat 05:00:09 PM 32.1928 -108.2017 102° East 541 623 37,000  Level Albuquerque Center
Sat 05:01:10 PM 32.1603 -108.0300 103° East 539 620 37,000  Level Albuquerque Center
Sat 05:02:12 PM 32.1281 -107.8592 103° East 537 618 37,000  Level Albuquerque Center
Sat 05:03:13 PM 32.0958 -107.6889 103° East 537 618 37,000  Level Albuquerque Center
Sat 05:04:15 PM 32.0631 -107.5186 103° East 536 617 37,000  Level Albuquerque Center
Sat 05:05:17 PM 32.0300 -107.3492 103° East 537 618 37,000  Level Albuquerque Center
Sat 05:06:18 PM 31.9903 -107.1456 103° East 538 619 37,000  Level Albuquerque Center
Sat 05:07:20 PM 31.9572 -106.9761 103° East 536 617 37,000  Level Albuquerque Center
Sat 05:08:21 PM 31.9228 -106.8058 103° East 538 619 37,000  Level Albuquerque Center
Sat 05:09:23 PM 31.8883 -106.6361 103° East 538 619 37,000  Level Albuquerque Center
Sat 05:10:24 PM 31.8550 -106.4719 103° East 543 625 37,000 -49 Level Albuquerque Center
Sat 05:11:26 PM 31.8142 -106.2658 103° East 542 624 36,900  Descending Albuquerque Center
Sat 05:12:27 PM 31.7706 -106.0994 107° East 534 615 37,000 49 Climbing Albuquerque Center
Sat 05:13:29 PM 31.7289 -105.9319 106° East 534 615 37,000  Level Albuquerque Center
Sat 05:14:30 PM 31.6858 -105.7633 107° East 538 619 37,000  Level Albuquerque Center
Sat 05:15:32 PM 31.6436 -105.5950 106° East 537 618 37,000  Level Albuquerque Center
Sat 05:16:33 PM 31.6022 -105.4258 106° East 538 619 37,000  Level Albuquerque Center
Sat 05:17:35 PM 31.5592 -105.2583 107° East 536 617 37,000  Level Albuquerque Center
Sat 05:18:37 PM 31.5161 -105.0886 107° East 538 619 37,000  Level Albuquerque Center
Sat 05:19:38 PM 31.4719 -104.9189 107° East 540 621 37,000  Level Albuquerque Center
Sat 05:20:40 PM 31.4200 -104.7164 107° East 539 620 37,000  Level Albuquerque Center
Sat 05:21:41 PM 31.3758 -104.5469 107° East 540 621 37,000  Level Albuquerque Center
Sat 05:22:43 PM 31.3328 -104.3786 107° East 539 620 37,000  Level Albuquerque Center
Sat 05:23:44 PM 31.2881 -104.2103 107° East 540 621 37,000  Level Albuquerque Center
Sat 05:24:46 PM 31.2433 -104.0422 107° East 540 621 37,000  Level Albuquerque Center
Sat 05:25:48 PM 31.1983 -103.8756 107° East 539 620 37,000  Level Albuquerque Center
Sat 05:26:49 PM 31.1458 -103.6881 108° East 532 612 37,000  Level Albuquerque Center
Sat 05:27:51 PM 31.0983 -103.5247 109° East 535 616 37,000  Level Albuquerque Center
Sat 05:28:52 PM 31.0558 -103.3619 107° East 526 605 37,000  Level Albuquerque Center
Sat 05:29:54 PM 31.0111 -103.2003 108° East 526 605 37,000  Level Albuquerque Center
Sat 05:30:55 PM 30.9689 -103.0411 107° East 520 598 37,000  Level Albuquerque Center
Sat 05:31:57 PM 30.9397 -102.8756 102° East 529 609 37,000  Level Albuquerque Center
Sat 05:32:59 PM 30.9239 -102.7061 96° East 532 612 37,000  Level Albuquerque Center
Sat 05:34:00 PM 30.9019 -102.5036 97° East 530 610 37,000  Level Albuquerque Center
Sat 05:34:55 PM 30.8886 -102.3683 97° East 530 610 37,000  Level Houston Center
Sat 05:35:56 PM 30.8703 -102.2008 97° East 529 609 37,000  Level Houston Center
Sat 05:36:58 PM 30.8500 -102.0000 97° East 528 608 37,000  Level Houston Center
Sat 05:37:59 PM 30.8317 -101.8331 97° East 527 606 37,000  Level Houston Center
Sat 05:39:01 PM 30.8131 -101.6639 97° East 529 609 37,000  Level Houston Center
Sat 05:40:02 PM 30.7953 -101.4944 97° East 528 608 37,000  Level Houston Center
Sat 05:41:04 PM 30.7769 -101.3242 97° East 530 610 37,000  Level Houston Center
Sat 05:42:05 PM 30.7578 -101.1556 97° East 528 608 37,000  Level Houston Center
Sat 05:43:07 PM 30.7381 -100.9883 98° East 523 602 37,000  Level Houston Center
Sat 05:44:09 PM 30.7194 -100.8189 97° East 524 603 37,000  Level Houston Center
Sat 05:45:10 PM 30.6997 -100.6503 98° East 526 605 37,000  Level Houston Center
Sat 05:46:12 PM 30.6756 -100.4489 98° East 523 602 37,000  Level Houston Center
Sat 05:47:13 PM 30.6567 -100.2811 97° East 522 601 37,000  Level Houston Center
Sat 05:48:15 PM 30.6356 -100.1139 98° East 519 597 37,000  Level Houston Center
Sat 05:49:16 PM 30.6156 -99.9469 98° East 519 597 37,000  Level Houston Center
Sat 05:50:18 PM 30.5944 -99.7808 98° East 518 596 37,000  Level Houston Center
Sat 05:51:19 PM 30.5736 -99.6144 98° East 520 598 37,000  Level Houston Center
Sat 05:52:21 PM 30.5522 -99.4506 99° East 515 593 37,000  Level Houston Center
Sat 05:53:22 PM 30.5311 -99.2872 98° East 514 592 37,000  Level Houston Center
Sat 05:54:24 PM 30.5064 -99.0986 99° East 511 588 37,000  Level Houston Center
Sat 05:55:25 PM 30.4831 -98.9356 99° East 510 587 37,000  Level Houston Center
Sat 05:56:27 PM 30.4617 -98.7736 99° East 507 583 37,000  Level Houston Center
Sat 05:57:28 PM 30.4403 -98.6122 99° East 504 580 37,000  Level Houston Center
Sat 05:58:30 PM 30.4192 -98.4517 99° East 501 577 37,000  Level Houston Center
Sat 05:59:31 PM 30.3964 -98.2917 99° East 500 575 37,000  Level Houston Center
Sat 06:00:33 PM 30.3750 -98.1325 99° East 499 574 37,000  Level Houston Center
Sat 06:01:35 PM 30.3528 -97.9747 99° East 495 570 37,000  Level Houston Center
Sat 06:02:36 PM 30.3300 -97.8175 99° East 494 568 37,000  Level Houston Center
Sat 06:03:38 PM 30.3083 -97.6589 99° East 496 571 37,000  Level Houston Center
Sat 06:04:39 PM 30.2817 -97.4725 99° East 500 575 37,000  Level Houston Center
Sat 06:05:41 PM 30.2575 -97.3147 100° East 499 574 37,000  Level Houston Center
Sat 06:06:42 PM 30.2358 -97.1539 99° East 505 581 37,000  Level Houston Center
Sat 06:07:44 PM 30.2111 -96.9944 100° East 503 579 37,000  Level Houston Center
Sat 06:08:45 PM 30.1867 -96.8339 100° East 505 581 37,000  Level Houston Center
Sat 06:09:47 PM 30.1636 -96.6717 99° East 508 585 37,000  Level Houston Center
Sat 06:10:48 PM 30.1389 -96.5114 100° East 504 580 37,000  Level Houston Center
Sat 06:11:50 PM 30.1142 -96.3461 100° East 504 580 37,000  Level Houston Center
Sat 06:12:51 PM 30.0906 -96.1869 100° East 503 579 37,000  Level Houston Center
Sat 06:13:53 PM 30.0647 -96.0281 101° East 504 580 37,000  Level Houston Center
Sat 06:14:54 PM 30.0408 -95.8694 100° East 500 575 37,000  Level Houston Center
Sat 06:15:56 PM 30.0161 -95.7119 100° East 498 573 37,000  Level Houston Center
Sat 06:16:58 PM 29.9864 -95.5261 100° East 493 567 37,000  Level Houston Center
Sat 06:17:59 PM 29.9625 -95.3703 100° East 492 566 37,000  Level Houston Center
Sat 06:19:01 PM 29.9706 -95.2111 87° East 502 578 37,000  Level Houston Center
Sat 06:20:02 PM 29.9850 -95.0525 84° East 495 570 37,000  Level Houston Center
Sat 06:21:04 PM 29.9975 -94.8939 85° East 495 570 37,000  Level Houston Center
Sat 06:22:05 PM 30.0128 -94.7358 84° East 495 570 37,000  Level Houston Center
Sat 06:23:07 PM 30.0261 -94.5783 84° East 493 567 37,000  Level Houston Center
Sat 06:24:08 PM 30.0383 -94.4053 85° East 490 564 37,000  Level Houston Center
Sat 06:25:10 PM 30.0522 -94.2489 84° East 491 565 37,000  Level Houston Center
Sat 06:26:11 PM 30.0642 -94.0931 85° East 490 564 37,000  Level Houston Center
Sat 06:27:13 PM 30.0772 -93.9389 84° East 487 560 37,000  Level Houston Center
Sat 06:28:14 PM 30.0886 -93.7858 85° East 485 558 37,000  Level Houston Center
Sat 06:29:15 PM 30.1006 -93.6328 85° East 484 557 37,000  Level Houston Center
Sat 06:30:17 PM 30.1372 -93.4533 77° East 491 565 37,000  Level Houston Center
Sat 06:31:18 PM 30.1706 -93.3053 75° East 486 559 37,000  Level Houston Center
Sat 06:32:20 PM 30.2047 -93.1581 75° East 482 555 37,000  Level Houston Center
Sat 06:33:21 PM 30.2381 -93.0094 75° East 481 554 37,000  Level Houston Center
Sat 06:34:23 PM 30.2708 -92.8581 76° East 487 560 37,000  Level Houston Center
Sat 06:35:24 PM 30.3036 -92.7081 76° East 486 559 37,000  Level Houston Center
Sat 06:36:25 PM 30.3442 -92.5267 75° East 485 558 37,000  Level Houston Center
Sat 06:37:27 PM 30.3781 -92.3761 75° East 485 558 37,000  Level Houston Center
Sat 06:38:28 PM 30.4083 -92.2164 78° East 484 557 37,000  Level Houston Center
Sat 06:39:30 PM 30.4408 -92.0669 76° East 483 556 37,000  Level Houston Center
Sat 06:40:31 PM 30.4736 -91.9158 76° East 487 560 37,000  Level Houston Center
Sat 06:41:33 PM 30.5056 -91.7650 76° East 486 559 37,000  Level Houston Center
Sat 06:42:34 PM 30.5389 -91.6136 76° East 489 563 37,000  Level Houston Center
Sat 06:43:35 PM 30.5686 -91.4633 77° East 483 556 37,000  Level Houston Center
Sat 06:44:37 PM 30.6003 -91.3139 76° East 484 557 37,000  Level Houston Center
Sat 06:45:38 PM 30.6328 -91.1617 76° East 486 559 37,000  Level Houston Center
Sat 06:46:40 PM 30.6667 -90.9792 78° East 483 556 37,000  Level Houston Center
Sat 06:47:41 PM 30.6997 -90.8256 76° East 487 560 37,000  Level Houston Center
Sat 06:48:42 PM 30.7306 -90.6714 77° East 489 563 37,000  Level Houston Center
Sat 06:49:44 PM 30.7608 -90.5181 77° East 489 563 37,000  Level Houston Center
Sat 06:50:45 PM 30.7919 -90.3636 77° East 488 562 37,000  Level Houston Center
Sat 06:51:47 PM 30.8217 -90.2108 77° East 483 556 37,000  Level Houston Center
Sat 06:52:48 PM 30.8525 -90.0558 77° East 487 560 37,000  Level Houston Center
Sat 06:53:49 PM 30.8811 -89.9017 78° East 485 558 37,000  Level Houston Center
Sat 06:54:51 PM 30.9122 -89.7472 77° East 488 562 37,000  Level Houston Center
Sat 06:55:52 PM 30.9583 -89.5978 70° East 491 565 37,000  Level Houston Center
Sat 06:56:53 PM 31.0153 -89.4561 65° Northeast 484 557 37,000  Level Houston Center
Sat 06:57:55 PM 31.0844 -89.2842 65° Northeast 487 560 37,000  Level Houston Center
Sat 06:58:56 PM 31.1408 -89.1392 66° East 490 564 37,000  Level Houston Center
Sat 06:59:57 PM 31.1978 -88.9956 65° Northeast 490 564 37,000  Level Houston Center
Sat 07:00:59 PM 31.2558 -88.8508 65° Northeast 483 556 37,000  Level Houston Center
Sat 07:02:00 PM 31.3122 -88.7069 65° Northeast 484 557 37,000  Level Houston Center
Sat 07:03:02 PM 31.3694 -88.5650 65° Northeast 481 554 37,000  Level Houston Center
Sat 07:04:03 PM 31.4258 -88.4217 65° Northeast 481 554 37,000  Level Houston Center
Sat 07:05:05 PM 31.4814 -88.2769 66° East 483 556 37,000  Level Houston Center
Sat 07:06:06 PM 31.5386 -88.1328 65° Northeast 484 557 37,000  Level Houston Center
Sat 07:07:08 PM 31.5936 -87.9869 66° East 486 559 37,000  Level Houston Center
Sat 07:08:05 PM 31.6503 -87.8469 65° Northeast 473 544 37,000  Level Atlanta Center
Sat 07:09:05 PM 31.7114 -87.6908 65° Northeast 473 544 37,000  Level Atlanta Center
Sat 07:10:05 PM 31.7678 -87.5442 66° East 473 544 37,000  Level Atlanta Center
Sat 07:11:05 PM 31.8239 -87.4019 65° Northeast 478 550 37,000  Level Atlanta Center
Sat 07:12:05 PM 31.8756 -87.2719 65° Northeast 478 550 37,000  Level Atlanta Center
Sat 07:13:05 PM 31.9581 -87.1453 52° Northeast 473 544 37,000  Level Atlanta Center
Sat 07:14:05 PM 32.0403 -87.0206 52° Northeast 478 550 37,000  Level Atlanta Center
Sat 07:15:05 PM 32.1186 -86.8933 54° Northeast 483 556 37,000  Level Atlanta Center
Sat 07:16:05 PM 32.1986 -86.7658 53° Northeast 483 556 37,000  Level Atlanta Center
Sat 07:17:05 PM 32.2914 -86.6286 51° Northeast 483 556 37,000  Level Atlanta Center
Sat 07:18:05 PM 32.3733 -86.5006 53° Northeast 483 556 37,000  Level Atlanta Center
Sat 07:19:05 PM 32.4342 -86.3817 59° Northeast 476 548 37,000  Level Atlanta Center
Sat 07:20:05 PM 32.5200 -86.2508 52° Northeast 482 555 37,000  Level Atlanta Center
Sat 07:21:05 PM 32.5972 -86.1222 54° Northeast 487 560 37,000  Level Atlanta Center
Sat 07:22:05 PM 32.6767 -85.9908 54° Northeast 487 560 37,000  Level Atlanta Center
Sat 07:23:05 PM 32.7558 -85.8617 54° Northeast 487 560 37,000  Level Atlanta Center
Sat 07:24:05 PM 32.8350 -85.7322 54° Northeast 487 560 37,000  Level Atlanta Center
Sat 07:25:05 PM 32.9161 -85.5928 55° Northeast 482 555 37,000  Level Atlanta Center
Sat 07:26:05 PM 32.9969 -85.4631 53° Northeast 482 555 37,000  Level Atlanta Center
Sat 07:27:05 PM 33.0672 -85.3550 52° Northeast 470 541 37,000  Level Atlanta Center
Sat 07:28:05 PM 33.1436 -85.2297 54° Northeast 470 541 37,000  Level Atlanta Center
Sat 07:29:05 PM 33.2219 -85.0967 55° Northeast 482 555 37,000  Level Atlanta Center
Sat 07:30:05 PM 33.2981 -84.9683 55° Northeast 477 549 37,000 150 Level Atlanta Center
Sat 07:31:05 PM 33.3742 -84.8372 55° Northeast 477 549 37,300 650 Climbing Atlanta Center
Sat 07:32:05 PM 33.4586 -84.6986 54° Northeast 477 549 38,300 850 Climbing Atlanta Center
Sat 07:33:05 PM 33.5322 -84.5672 56° Northeast 472 543 39,000 350 Climbing Atlanta Center
Sat 07:34:05 PM 33.6017 -84.4503 54° Northeast 472 543 39,000  Level Atlanta Center
Sat 07:35:05 PM 33.6750 -84.3233 55° Northeast 472 543 39,000  Level Atlanta Center
Sat 07:36:05 PM 33.7586 -84.1761 56° Northeast 472 543 39,000  Level Atlanta Center
Sat 07:37:05 PM 33.8339 -84.0489 55° Northeast 481 554 39,000  Level Atlanta Center
Sat 07:38:05 PM 33.9069 -83.9211 55° Northeast 469 540 39,000  Level Atlanta Center
Sat 07:39:05 PM 33.9819 -83.7958 54° Northeast 469 540 39,000  Level Atlanta Center
Sat 07:40:05 PM 34.0544 -83.6653 56° Northeast 469 540 39,000  Level Atlanta Center
Sat 07:41:05 PM 34.1272 -83.5394 55° Northeast 469 540 39,000  Level Atlanta Center
Sat 07:42:05 PM 34.2039 -83.4083 55° Northeast 469 540 39,000  Level Atlanta Center
Sat 07:43:05 PM 34.2761 -83.2822 55° Northeast 469 540 39,000  Level Atlanta Center
Sat 07:44:05 PM 34.3503 -83.1481 56° Northeast 469 540 39,000  Level Atlanta Center
Sat 07:45:05 PM 34.4244 -83.0164 56° Northeast 469 540 39,000  Level Atlanta Center
Sat 07:46:05 PM 34.4983 -82.8869 55° Northeast 475 547 39,000  Level Atlanta Center
Sat 07:47:05 PM 34.5703 -82.7572 56° Northeast 463 533 39,000  Level Atlanta Center
Sat 07:48:05 PM 34.6358 -82.6403 56° Northeast 463 533 39,000  Level Atlanta Center
Sat 07:49:05 PM 34.7114 -82.5150 54° Northeast 463 533 39,000  Level Atlanta Center
Sat 07:50:05 PM 34.7828 -82.3847 56° Northeast 468 539 39,000  Level Atlanta Center
Sat 07:51:05 PM 34.8539 -82.2517 57° Northeast 468 539 39,000  Level Atlanta Center
Sat 07:52:05 PM 34.9353 -82.1106 55° Northeast 468 539 39,000  Level Atlanta Center
Sat 07:53:05 PM 35.0061 -81.9797 57° Northeast 468 539 39,000  Level Atlanta Center
Sat 07:54:05 PM 35.0789 -81.8458 56° Northeast 468 539 39,000  Level Atlanta Center
Sat 07:55:05 PM 35.1475 -81.7119 58° Northeast 468 539 39,000  Level Atlanta Center
Sat 07:56:05 PM 35.2200 -81.5778 56° Northeast 468 539 39,000  Level Atlanta Center
Sat 07:57:05 PM 35.2883 -81.4458 58° Northeast 463 533 39,000  Level Atlanta Center
Sat 07:58:05 PM 35.3561 -81.3114 58° Northeast 463 533 39,000  Level Atlanta Center
Sat 07:59:05 PM 35.4242 -81.1742 59° Northeast 463 533 39,000  Level Atlanta Center
Sat 08:00:05 PM 35.4978 -81.0339 57° Northeast 468 539 39,000  Level Atlanta Center
Sat 08:01:05 PM 35.5697 -80.9008 56° Northeast 473 544 39,000  Level Atlanta Center
Sat 08:02:05 PM 35.6372 -80.7731 57° Northeast 465 535 39,000  Level Atlanta Center
Sat 08:03:05 PM 35.7067 -80.6400 57° Northeast 460 529 39,000  Level Atlanta Center
Sat 08:04:05 PM 35.7658 -80.5222 58° Northeast 460 529 39,000  Level Atlanta Center
Sat 08:05:05 PM 35.8331 -80.3914 58° Northeast 454 522 39,000 -300 Level Atlanta Center
Sat 08:06:05 PM 35.9056 -80.2419 59° Northeast 454 522 38,400 -1,818 Descending Atlanta Center
Sat 08:08:23 PM 36.0622 -79.9472 57° Northeast 443 510 33,000 -1,636 Descending Washington Center
Sat 08:09:23 PM 36.1400 -79.8153 54° Northeast 448 516 33,000  Level Washington Center
Sat 08:10:24 PM 36.2156 -79.6778 56° Northeast 470 541 33,000  Level Washington Center
Sat 08:11:22 PM 36.2844 -79.5575 55° Northeast 478 550 33,000 -101 Level Washington Center
Sat 08:12:23 PM 36.3664 -79.4122 55° Northeast 473 544 32,800 -645 Descending Washington Center
Sat 08:13:23 PM 36.4328 -79.2914 56° Northeast 473 544 31,700 -1,537 Descending Washington Center
Sat 08:14:24 PM 36.5144 -79.1403 56° Northeast 473 544 29,700 -1,918 Descending Washington Center
Sat 08:15:25 PM 36.5914 -79.0119 53° Northeast 473 544 27,800 -1,966 Descending Washington Center
Sat 08:16:23 PM 36.6639 -78.8803 56° Northeast 467 537 25,800 -1,424 Descending Washington Center
Sat 08:17:23 PM 36.7233 -78.7664 57° Northeast 451 519 25,000 -400 Descending Washington Center
Sat 08:18:23 PM 36.7911 -78.6447 55° Northeast 433 498 25,000  Level Washington Center
Sat 08:19:23 PM 36.8544 -78.5278 56° Northeast 419 482 25,000  Level Washington Center
Sat 08:20:23 PM 36.9244 -78.3978 56° Northeast 413 475 25,000  Level Washington Center
Sat 08:21:23 PM 36.9917 -78.2781 55° Northeast 413 475 25,000  Level Washington Center
Sat 08:22:24 PM 37.0569 -78.1581 56° Northeast 408 470 25,000  Level Washington Center
Sat 08:23:24 PM 37.1200 -78.0350 57° Northeast 408 470 25,000 -99 Level Washington Center
Sat 08:24:25 PM 37.1914 -77.9044 56° Northeast 421 484 24,800 -843 Descending Washington Center
Sat 08:25:25 PM 37.2650 -77.7658 56° Northeast 453 521 23,300 -1,322 Descending Washington Center
Sat 08:26:23 PM 37.3383 -77.6294 56° Northeast 464 534 22,200 -661 Descending Washington Center
Sat 08:27:23 PM 37.4094 -77.4953 56° Northeast 464 534 22,000 -99 Descending Washington Center
Sat 08:28:24 PM 37.4825 -77.3608 56° Northeast 464 534 22,000  Level Washington Center
Sat 08:29:25 PM 37.5939 -77.3008 23° Northeast 424 488 22,000 -1,041 Level Washington Center
Sat 08:30:25 PM 37.7150 -77.2744 10° North 418 481 19,900 -2,250 Descending Washington Center
Sat 08:31:25 PM 37.8322 -77.2508 North 418 481 17,500 -2,339 Descending Washington Center
Sat 08:32:23 PM 37.9431 -77.2269 10° North 412 474 15,300 -1,966 Descending Washington Center
Sat 08:33:24 PM 38.0392 -77.2133 North 392 451 13,600 -1,686 Descending Washington Center
Sat 08:34:24 PM 38.1397 -77.1917 10° North 379 436 11,900 -1,700 Descending Washington Center
Sat 08:35:24 PM 38.2464 -77.1647 11° North 363 418 10,200 -950 Descending Washington Center
Sat 08:36:24 PM 38.3319 -77.1508 North 350 403 10,000 -102 Descending Washington Center
Sat 08:37:22 PM 38.4261 -77.1289 10° North 345 397 10,000  Level Washington Center
Sat 08:38:23 PM 38.5203 -77.1122 North 345 397 10,000 -485 Level Washington Center
Sat 08:39:38 PM 38.6333 -77.0833 11° North 287 330 8,900 -1,244 Descending Potomac TRACON
Sat 08:40:38 PM 38.7167 -77.0667 North 282 325 7,200 -1,450 Descending Potomac TRACON
Sat 08:41:38 PM 38.7833 -77.0833 349° North 278 320 6,000 -600 Descending Potomac TRACON
Sat 08:42:38 PM 38.8500 -77.1333 330° Northwest 235 270 6,000 -500 Level Potomac TRACON
Sat 08:43:38 PM 38.8833 -77.1833 311° West 232 267 5,000 -526 Descending Potomac TRACON
Sat 08:44:32 PM 38.9333 -77.2333 322° Northwest 223 257 5,000  Level Potomac TRACON
Sat 08:45:38 PM 38.9833 -77.2833 322° Northwest 218 251 5,000 -476 Level Potomac TRACON
Sat 08:46:38 PM 39.0167 -77.2333 49° Northeast 224 258 4,000 -900 Descending Potomac TRACON
Sat 08:47:38 PM 39.0000 -77.1833 113° Southeast 189 217 3,200 -650 Descending Potomac TRACON
Sat 08:48:38 PM 38.9667 -77.1500 142° Southeast 174 200 2,700 -737 Descending Potomac TRACON
Sat 08:49:32 PM 38.9167 -77.1167 153° Southeast 167 192 1,800 -842 Descending Potomac TRACON
Sat 08:50:32 PM 38.9000 -77.0667 113° Southeast 143 165 1,100 -650 Descending Potomac TRACON
Sat 08:51:32 PM 38.8833 -77.0333 123° Southeast 136 157 500 -600 Descending Potomac TRACON

Login

Don't have an account? Register now (free) for customized features, flight alerts, and more!